createdAt,value
2018-11-21T00:00:01.782Z,2.77
2018-11-21T00:01:01.549Z,2.68
2018-11-21T00:02:01.560Z,2.77
2018-11-21T00:03:01.573Z,2.73
2018-11-21T00:04:01.585Z,2.69
2018-11-21T00:05:01.600Z,2.75
2018-11-21T00:06:01.601Z,2.73
2018-11-21T00:07:01.615Z,2.69
2018-11-21T00:08:01.630Z,2.72
2018-11-21T00:09:01.648Z,2.73
2018-11-21T00:10:01.658Z,2.73
2018-11-21T00:11:01.669Z,2.73
2018-11-21T00:12:01.671Z,2.76
2018-11-21T00:13:01.683Z,2.72
2018-11-21T00:14:01.713Z,2.73
2018-11-21T00:15:01.710Z,2.75
2018-11-21T00:16:01.724Z,2.64
2018-11-21T00:17:01.741Z,2.72
2018-11-21T00:18:01.739Z,2.75
2018-11-21T00:19:01.754Z,2.72
2018-11-21T00:20:01.765Z,2.73
2018-11-21T00:21:01.790Z,2.73
2018-11-21T00:22:01.795Z,2.68
2018-11-21T00:23:01.805Z,2.65
2018-11-21T00:24:01.807Z,2.73
2018-11-21T00:25:01.820Z,2.58
2018-11-21T00:26:01.834Z,2.62
2018-11-21T00:27:01.851Z,2.64
2018-11-21T00:28:01.860Z,2.62
2018-11-21T00:29:01.865Z,2.73
2018-11-21T00:30:01.878Z,2.70
2018-11-21T00:31:01.888Z,2.69
2018-11-21T00:32:01.903Z,2.59
2018-11-21T00:33:01.915Z,2.69
2018-11-21T00:34:01.929Z,2.70
2018-11-21T00:35:01.943Z,2.69
2018-11-21T00:36:01.943Z,2.69
2018-11-21T00:37:01.958Z,2.64
2018-11-21T00:38:01.974Z,2.61
2018-11-21T00:39:01.989Z,2.65
2018-11-21T00:40:01.997Z,2.65
2018-11-21T00:41:01.999Z,2.62
2018-11-21T00:42:02.015Z,2.70
2018-11-21T00:43:02.028Z,2.70
2018-11-21T00:44:02.039Z,2.70
2018-11-21T00:45:02.057Z,2.68
2018-11-21T00:46:02.067Z,2.59
2018-11-21T00:47:02.079Z,2.64
2018-11-21T00:48:02.082Z,2.68
2018-11-21T00:49:02.099Z,2.64
2018-11-21T00:50:02.122Z,2.62
2018-11-21T00:51:02.123Z,2.62
2018-11-21T00:52:02.134Z,2.57
2018-11-21T00:53:02.135Z,2.68
2018-11-21T00:54:02.150Z,2.64
2018-11-21T00:55:02.756Z,2.62
2018-11-21T00:56:02.176Z,2.58
2018-11-21T00:57:02.190Z,2.61
2018-11-21T00:58:02.245Z,2.61
2018-11-21T00:59:02.214Z,2.50
2018-11-21T01:00:02.219Z,2.59
2018-11-21T01:01:02.232Z,2.55
2018-11-21T01:02:02.245Z,2.55
2018-11-21T01:03:02.261Z,2.47
2018-11-21T01:04:02.273Z,2.54
2018-11-21T01:05:02.274Z,2.52
2018-11-21T01:06:02.292Z,2.55
2018-11-21T01:07:02.301Z,2.51
2018-11-21T01:08:02.315Z,2.52
2018-11-21T01:09:02.327Z,2.54
2018-11-21T01:10:02.332Z,2.51
2018-11-21T01:11:02.342Z,2.51
2018-11-21T01:12:02.356Z,2.62
2018-11-21T01:13:02.371Z,2.61
2018-11-21T01:14:02.397Z,2.51
2018-11-21T01:15:02.386Z,2.51
2018-11-21T01:16:02.398Z,2.58
2018-11-21T01:17:02.411Z,2.57
2018-11-21T01:18:02.425Z,2.64
2018-11-21T01:19:02.437Z,2.51
2018-11-21T01:20:02.454Z,2.59
2018-11-21T01:21:02.454Z,2.64
2018-11-21T01:22:02.465Z,2.68
2018-11-21T01:23:02.480Z,2.55
2018-11-21T01:24:02.497Z,2.52
2018-11-21T01:25:02.507Z,2.58
2018-11-21T01:26:02.521Z,2.58
2018-11-21T01:27:02.522Z,2.58
2018-11-21T01:28:02.535Z,2.64
2018-11-21T01:29:02.548Z,2.55
2018-11-21T01:30:02.562Z,2.52
2018-11-21T01:31:02.576Z,2.54
2018-11-21T01:32:02.590Z,2.61
2018-11-21T01:33:09.386Z,2.58
2018-11-21T01:34:02.603Z,2.52
2018-11-21T01:35:02.617Z,2.62
2018-11-21T01:36:02.632Z,2.54
2018-11-21T01:37:02.645Z,2.54
2018-11-21T01:38:02.648Z,2.54
2018-11-21T01:39:02.665Z,2.55
2018-11-21T01:40:02.675Z,2.52
2018-11-21T01:41:02.689Z,2.54
2018-11-21T01:42:02.703Z,2.68
2018-11-21T01:43:02.712Z,2.61
2018-11-21T01:44:02.715Z,2.52
2018-11-21T01:45:02.727Z,2.54
2018-11-21T01:46:02.741Z,2.52
2018-11-21T01:47:02.756Z,2.59
2018-11-21T01:48:02.768Z,2.51
2018-11-21T01:49:02.782Z,2.52
2018-11-21T01:50:02.787Z,2.62
2018-11-21T01:51:02.795Z,2.61
2018-11-21T01:52:02.810Z,2.61
2018-11-21T01:53:02.824Z,2.58
2018-11-21T01:54:02.837Z,2.55
2018-11-21T01:55:02.849Z,2.57
2018-11-21T01:56:02.855Z,2.57
2018-11-21T01:57:02.865Z,2.51
2018-11-21T01:58:02.878Z,2.52
2018-11-21T01:59:02.892Z,2.50
2018-11-21T02:00:02.906Z,2.46
2018-11-21T02:01:02.907Z,2.51
2018-11-21T02:02:02.921Z,2.51
2018-11-21T02:03:02.935Z,2.51
2018-11-21T02:04:02.947Z,2.54
2018-11-21T02:05:02.963Z,2.57
2018-11-21T02:06:02.975Z,2.52
2018-11-21T02:07:02.975Z,2.51
2018-11-21T02:08:02.990Z,2.41
2018-11-21T02:09:03.005Z,2.52
2018-11-21T02:10:03.016Z,2.41
2018-11-21T02:11:03.029Z,2.57
2018-11-21T02:12:03.042Z,2.54
2018-11-21T02:13:03.043Z,2.51
2018-11-21T02:14:03.060Z,2.47
2018-11-21T02:15:03.073Z,2.34
2018-11-21T02:16:03.085Z,2.43
2018-11-21T02:17:03.098Z,2.37
2018-11-21T02:18:03.099Z,2.39
2018-11-21T02:19:03.113Z,2.39
2018-11-21T02:20:03.144Z,2.37
2018-11-21T02:21:03.139Z,2.44
2018-11-21T02:22:03.158Z,2.36
2018-11-21T02:23:03.167Z,2.36
2018-11-21T02:24:03.168Z,2.40
2018-11-21T02:25:03.180Z,2.37
2018-11-21T02:26:03.195Z,2.41
2018-11-21T02:27:03.210Z,2.41
2018-11-21T02:28:03.223Z,2.37
2018-11-21T02:29:03.224Z,2.40
2018-11-21T02:30:03.236Z,2.39
2018-11-21T02:31:03.250Z,2.37
2018-11-21T02:32:03.263Z,2.43
2018-11-21T02:33:03.280Z,2.40
2018-11-21T02:34:03.290Z,2.36
2018-11-21T02:35:03.295Z,2.30
2018-11-21T02:36:03.309Z,2.37
2018-11-21T02:37:03.318Z,2.30
2018-11-21T02:38:03.334Z,2.37
2018-11-21T02:39:03.353Z,2.28
2018-11-21T02:40:03.355Z,2.39
2018-11-21T02:41:03.361Z,2.40
2018-11-21T02:42:03.377Z,2.39
2018-11-21T02:43:03.388Z,2.41
2018-11-21T02:44:03.404Z,2.36
2018-11-21T02:45:03.415Z,2.39
2018-11-21T02:46:03.416Z,2.33
2018-11-21T02:47:03.429Z,2.37
2018-11-21T02:48:03.442Z,2.22
2018-11-21T02:49:03.456Z,2.26
2018-11-21T02:50:03.470Z,2.28
2018-11-21T02:51:03.471Z,2.21
2018-11-21T02:52:03.484Z,2.26
2018-11-21T02:53:03.501Z,2.19
2018-11-21T02:54:03.511Z,2.19
2018-11-21T02:55:03.528Z,2.22
2018-11-21T02:56:03.526Z,2.26
2018-11-21T02:57:03.539Z,2.25
2018-11-21T02:58:03.557Z,2.22
2018-11-21T02:59:03.567Z,2.25
2018-11-21T03:00:03.580Z,2.32
2018-11-21T03:01:03.581Z,2.22
2018-11-21T03:02:03.593Z,2.34
2018-11-21T03:03:03.608Z,2.19
2018-11-21T03:04:03.620Z,2.26
2018-11-21T03:05:03.640Z,2.32
2018-11-21T03:06:03.647Z,2.33
2018-11-21T03:07:03.656Z,2.28
2018-11-21T03:08:03.663Z,2.28
2018-11-21T03:09:03.676Z,2.22
2018-11-21T03:10:03.691Z,2.22
2018-11-21T03:11:03.704Z,2.32
2018-11-21T03:12:03.704Z,2.26
2018-11-21T03:13:03.719Z,2.25
2018-11-21T03:14:03.731Z,2.22
2018-11-21T03:15:03.751Z,2.19
2018-11-21T03:16:03.759Z,2.21
2018-11-21T03:17:03.761Z,2.19
2018-11-21T03:18:03.773Z,2.14
2018-11-21T03:19:03.787Z,2.22
2018-11-21T03:20:03.801Z,2.25
2018-11-21T03:21:03.813Z,2.21
2018-11-21T03:22:03.815Z,2.22
2018-11-21T03:23:03.836Z,2.18
2018-11-21T03:24:03.845Z,2.15
2018-11-21T03:25:03.856Z,2.22
2018-11-21T03:26:03.882Z,2.19
2018-11-21T03:27:03.882Z,2.25
2018-11-21T03:28:03.884Z,2.28
2018-11-21T03:29:03.897Z,2.22
2018-11-21T03:30:03.912Z,2.21
2018-11-21T03:31:03.925Z,2.18
2018-11-21T03:32:03.943Z,2.25
2018-11-21T03:33:03.939Z,2.18
2018-11-21T03:34:03.951Z,2.22
2018-11-21T03:35:03.967Z,2.25
2018-11-21T03:36:03.979Z,2.21
2018-11-21T03:37:03.981Z,2.21
2018-11-21T03:38:03.994Z,2.22
2018-11-21T03:39:04.007Z,2.22
2018-11-21T03:40:04.022Z,2.18
2018-11-21T03:41:04.038Z,2.18
2018-11-21T03:42:04.047Z,2.18
2018-11-21T03:43:04.049Z,2.16
2018-11-21T03:44:04.070Z,2.25
2018-11-21T03:45:04.077Z,2.28
2018-11-21T03:46:04.090Z,2.22
2018-11-21T03:47:04.109Z,2.21
2018-11-21T03:48:04.106Z,2.25
2018-11-21T03:49:04.118Z,2.21
2018-11-21T03:50:04.132Z,2.26
2018-11-21T03:51:04.146Z,2.16
2018-11-21T03:52:04.159Z,2.21
2018-11-21T03:53:04.161Z,2.15
2018-11-21T03:54:04.174Z,2.12
2018-11-21T03:55:04.187Z,2.10
2018-11-21T03:56:04.208Z,2.16
2018-11-21T03:57:04.220Z,2.05
2018-11-21T03:58:04.216Z,2.08
2018-11-21T03:59:04.227Z,2.08
2018-11-21T04:00:04.244Z,2.08
2018-11-21T04:01:04.256Z,2.12
2018-11-21T04:02:04.269Z,2.12
2018-11-21T04:03:04.282Z,2.05
2018-11-21T04:04:04.284Z,2.08
2018-11-21T04:05:04.298Z,2.12
2018-11-21T04:06:04.312Z,2.12
2018-11-21T04:07:04.337Z,2.01
2018-11-21T04:08:04.342Z,2.10
2018-11-21T04:09:04.341Z,2.10
2018-11-21T04:10:04.353Z,2.01
2018-11-21T04:11:04.378Z,2.05
2018-11-21T04:12:04.379Z,2.05
2018-11-21T04:13:04.382Z,2.03
2018-11-21T04:14:04.394Z,2.01
2018-11-21T04:15:04.413Z,2.05
2018-11-21T04:16:04.420Z,1.95
2018-11-21T04:17:04.440Z,2.04
2018-11-21T04:18:04.439Z,2.03
2018-11-21T04:19:04.448Z,2.10
2018-11-21T04:20:04.463Z,1.98
2018-11-21T04:21:04.486Z,2.01
2018-11-21T04:22:04.490Z,1.92
2018-11-21T04:23:04.492Z,1.95
2018-11-21T04:24:04.508Z,2.00
2018-11-21T04:25:04.525Z,1.86
2018-11-21T04:26:04.534Z,1.98
2018-11-21T04:27:04.546Z,1.93
2018-11-21T04:28:04.551Z,2.07
2018-11-21T04:29:04.560Z,1.98
2018-11-21T04:30:04.573Z,1.89
2018-11-21T04:31:04.585Z,1.97
2018-11-21T04:32:04.602Z,1.93
2018-11-21T04:33:04.601Z,1.93
2018-11-21T04:34:04.619Z,1.93
2018-11-21T04:35:04.629Z,2.00
2018-11-21T04:36:04.640Z,1.95
2018-11-21T04:37:04.642Z,1.98
2018-11-21T04:38:04.657Z,2.01
2018-11-21T04:39:04.684Z,1.95
2018-11-21T04:40:04.684Z,2.00
2018-11-21T04:41:04.696Z,1.95
2018-11-21T04:42:04.699Z,1.88
2018-11-21T04:43:04.711Z,1.92
2018-11-21T04:44:04.724Z,1.93
2018-11-21T04:45:04.744Z,1.93
2018-11-21T04:46:04.754Z,1.98
2018-11-21T04:47:04.759Z,1.85
2018-11-21T04:48:04.769Z,1.93
2018-11-21T04:49:04.779Z,1.85
2018-11-21T04:50:04.794Z,1.81
2018-11-21T04:51:04.808Z,1.88
2018-11-21T04:52:04.824Z,1.78
2018-11-21T04:53:04.828Z,1.78
2018-11-21T04:54:04.834Z,1.84
2018-11-21T04:55:04.849Z,1.75
2018-11-21T04:56:04.867Z,1.70
2018-11-21T04:57:04.864Z,1.71
2018-11-21T04:58:04.877Z,1.74
2018-11-21T04:59:04.903Z,1.71
2018-11-21T05:00:04.906Z,1.68
2018-11-21T05:01:04.909Z,1.79
2018-11-21T05:02:04.921Z,1.81
2018-11-21T05:03:04.938Z,1.75
2018-11-21T05:04:04.954Z,1.67
2018-11-21T05:05:04.963Z,1.71
2018-11-21T05:06:04.960Z,1.76
2018-11-21T05:07:04.973Z,1.70
2018-11-21T05:08:04.987Z,1.76
2018-11-21T05:09:05.000Z,1.76
2018-11-21T05:10:05.007Z,1.75
2018-11-21T05:11:05.016Z,1.75
2018-11-21T05:12:05.028Z,1.68
2018-11-21T05:13:05.042Z,1.71
2018-11-21T05:14:05.055Z,1.76
2018-11-21T05:15:05.057Z,1.76
2018-11-21T05:16:05.071Z,1.74
2018-11-21T05:17:05.090Z,1.75
2018-11-21T05:18:05.098Z,1.71
2018-11-21T05:19:05.111Z,1.74
2018-11-21T05:20:05.111Z,1.74
2018-11-21T05:21:05.132Z,1.76
2018-11-21T05:22:05.144Z,1.81
2018-11-21T05:23:05.153Z,1.75
2018-11-21T05:24:05.154Z,1.81
2018-11-21T05:25:05.166Z,1.81
2018-11-21T05:26:05.192Z,1.76
2018-11-21T05:27:05.194Z,1.82
2018-11-21T05:28:05.211Z,1.75
2018-11-21T05:29:05.208Z,1.84
2018-11-21T05:30:05.223Z,1.85
2018-11-21T05:31:05.238Z,1.86
2018-11-21T05:32:05.255Z,1.86
2018-11-21T05:33:05.253Z,1.97
2018-11-21T05:34:05.268Z,1.79
2018-11-21T05:35:05.281Z,1.81
2018-11-21T05:36:05.291Z,1.93
2018-11-21T05:37:05.304Z,1.93
2018-11-21T05:38:05.305Z,1.93
2018-11-21T05:39:05.319Z,1.93
2018-11-21T05:40:05.332Z,1.93
2018-11-21T05:41:05.349Z,2.01
2018-11-21T05:42:05.364Z,1.84
2018-11-21T05:43:05.361Z,2.03
2018-11-21T05:44:05.378Z,1.98
2018-11-21T05:45:05.388Z,1.97
2018-11-21T05:46:05.403Z,1.89
2018-11-21T05:47:05.427Z,1.97
2018-11-21T05:48:05.416Z,1.97
2018-11-21T05:49:05.430Z,1.93
2018-11-21T05:50:05.443Z,1.98
2018-11-21T05:51:05.457Z,2.00
2018-11-21T05:52:05.472Z,1.95
2018-11-21T05:53:05.472Z,2.03
2018-11-21T05:54:05.485Z,2.00
2018-11-21T05:55:05.497Z,1.98
2018-11-21T05:56:05.513Z,1.97
2018-11-21T05:57:05.526Z,1.98
2018-11-21T05:58:05.530Z,2.05
2018-11-21T05:59:05.544Z,2.03
2018-11-21T06:00:05.557Z,2.08
2018-11-21T06:01:05.571Z,2.07
2018-11-21T06:02:05.580Z,2.01
2018-11-21T06:03:05.586Z,1.98
2018-11-21T06:04:05.596Z,1.98
2018-11-21T06:05:05.608Z,2.03
2018-11-21T06:06:09.850Z,2.00
2018-11-21T06:07:05.637Z,2.03
2018-11-21T06:08:05.636Z,2.04
2018-11-21T06:09:05.653Z,2.14
2018-11-21T06:10:05.664Z,2.05
2018-11-21T06:11:05.679Z,2.05
2018-11-21T06:12:05.709Z,2.05
2018-11-21T06:13:05.705Z,2.07
2018-11-21T06:14:05.706Z,2.01
2018-11-21T06:15:05.718Z,2.08
2018-11-21T06:16:05.732Z,2.10
2018-11-21T06:17:05.746Z,2.08
2018-11-21T06:18:05.748Z,2.04
2018-11-21T06:19:05.763Z,2.12
2018-11-21T06:20:05.773Z,2.08
2018-11-21T06:21:05.790Z,2.07
2018-11-21T06:22:05.801Z,2.07
2018-11-21T06:23:05.815Z,2.10
2018-11-21T06:24:05.816Z,2.12
2018-11-21T06:25:05.842Z,2.07
2018-11-21T06:26:05.849Z,2.14
2018-11-21T06:27:05.857Z,2.15
2018-11-21T06:28:05.870Z,2.08
2018-11-21T06:29:05.871Z,2.07
2018-11-21T06:30:05.884Z,2.10
2018-11-21T06:31:05.899Z,2.08
2018-11-21T06:32:05.929Z,2.07
2018-11-21T06:33:05.925Z,2.05
2018-11-21T06:34:05.933Z,2.05
2018-11-21T06:35:05.940Z,2.03
2018-11-21T06:36:05.955Z,2.04
2018-11-21T06:37:05.970Z,2.04
2018-11-21T06:38:05.980Z,2.14
2018-11-21T06:39:05.982Z,2.07
2018-11-21T06:40:05.995Z,2.10
2018-11-21T06:41:06.012Z,2.15
2018-11-21T06:42:06.022Z,2.07
2018-11-21T06:43:06.036Z,2.04
2018-11-21T06:44:06.037Z,2.10
2018-11-21T06:45:06.051Z,2.03
2018-11-21T06:46:06.063Z,2.10
2018-11-21T06:47:06.077Z,2.08
2018-11-21T06:48:06.091Z,2.14
2018-11-21T06:49:06.092Z,2.12
2018-11-21T06:50:06.114Z,2.12
2018-11-21T06:51:06.118Z,2.08
2018-11-21T06:52:06.132Z,2.04
2018-11-21T06:53:06.148Z,2.12
2018-11-21T06:54:06.147Z,2.12
2018-11-21T06:55:06.159Z,2.14
2018-11-21T06:56:06.174Z,2.19
2018-11-21T06:57:06.193Z,2.07
2018-11-21T06:58:06.201Z,2.19
2018-11-21T06:59:06.202Z,2.10
2018-11-21T07:00:06.215Z,2.14
2018-11-21T07:01:06.229Z,2.12
2018-11-21T07:02:06.241Z,2.08
2018-11-21T07:03:06.257Z,2.15
2018-11-21T07:04:06.269Z,2.15
2018-11-21T07:05:06.270Z,2.14
2018-11-21T07:06:06.288Z,2.16
2018-11-21T07:07:06.298Z,2.21
2018-11-21T07:08:06.312Z,2.22
2018-11-21T07:09:06.324Z,2.21
2018-11-21T07:10:06.324Z,2.26
2018-11-21T07:11:06.340Z,2.22
2018-11-21T07:12:06.353Z,2.25
2018-11-21T07:13:11.017Z,2.30
2018-11-21T07:14:07.194Z,2.23
2018-11-21T07:15:06.381Z,2.25
2018-11-21T07:16:06.396Z,2.23
2018-11-21T07:17:06.407Z,2.30
2018-11-21T07:18:06.421Z,2.32
2018-11-21T07:19:06.440Z,2.30
2018-11-21T07:20:06.449Z,2.32
2018-11-21T07:21:06.449Z,2.30
2018-11-21T07:22:06.478Z,2.30
2018-11-21T07:23:06.476Z,2.28
2018-11-21T07:24:06.489Z,2.37
2018-11-21T07:25:06.507Z,2.39
2018-11-21T07:26:06.505Z,2.25
2018-11-21T07:27:06.517Z,2.37
2018-11-21T07:28:12.774Z,2.40
2018-11-21T07:29:06.545Z,2.41
2018-11-21T07:30:06.563Z,2.33
2018-11-21T07:31:06.572Z,2.36
2018-11-21T07:32:06.573Z,2.40
2018-11-21T07:33:06.591Z,2.44
2018-11-21T07:34:06.600Z,2.37
2018-11-21T07:35:06.615Z,2.36
2018-11-21T07:36:06.627Z,2.36
2018-11-21T07:37:06.628Z,2.39
2018-11-21T07:38:06.642Z,2.34
2018-11-21T07:39:06.657Z,2.36
2018-11-21T07:40:06.669Z,2.37
2018-11-21T07:41:06.683Z,2.37
2018-11-21T07:42:06.696Z,2.33
2018-11-21T07:43:06.698Z,2.39
2018-11-21T07:44:06.728Z,2.39
2018-11-21T07:45:06.725Z,2.41
2018-11-21T07:46:06.737Z,2.39
2018-11-21T07:47:06.752Z,2.40
2018-11-21T07:48:06.765Z,2.34
2018-11-21T07:49:06.765Z,2.33
2018-11-21T07:50:06.781Z,2.41
2018-11-21T07:51:06.792Z,2.39
2018-11-21T07:52:06.807Z,2.43
2018-11-21T07:53:06.820Z,2.37
2018-11-21T07:54:06.834Z,2.51
2018-11-21T07:55:06.835Z,2.52
2018-11-21T07:56:06.848Z,2.47
2018-11-21T07:57:06.862Z,2.51
2018-11-21T07:58:06.875Z,2.51
2018-11-21T07:59:06.889Z,2.44
2018-11-21T08:00:06.902Z,2.51
2018-11-21T08:01:06.909Z,2.46
2018-11-21T08:02:06.916Z,2.52
2018-11-21T08:03:06.943Z,2.50
2018-11-21T08:04:06.943Z,2.50
2018-11-21T08:05:06.958Z,2.52
2018-11-21T08:06:06.971Z,2.52
2018-11-21T08:07:06.972Z,2.54
2018-11-21T08:08:06.985Z,2.55
2018-11-21T08:09:06.999Z,2.51
2018-11-21T08:10:07.016Z,2.54
2018-11-21T08:11:07.030Z,2.61
2018-11-21T08:12:07.040Z,2.51
2018-11-21T08:13:07.042Z,2.54
2018-11-21T08:14:07.054Z,2.62
2018-11-21T08:15:08.074Z,2.54
2018-11-21T08:16:07.083Z,2.52
2018-11-21T08:17:07.094Z,2.62
2018-11-21T08:18:07.108Z,2.57
2018-11-21T08:19:07.109Z,2.62
2018-11-21T08:20:07.126Z,2.59
2018-11-21T08:21:07.136Z,2.65
2018-11-21T08:22:07.149Z,2.58
2018-11-21T08:23:07.163Z,2.64
2018-11-21T08:24:07.181Z,2.62
2018-11-21T08:25:07.187Z,2.58
2018-11-21T08:26:07.192Z,2.61
2018-11-21T08:27:07.205Z,2.68
2018-11-21T08:28:07.221Z,2.65
2018-11-21T08:29:07.232Z,2.64
2018-11-21T08:30:07.245Z,2.61
2018-11-21T08:31:07.258Z,2.62
2018-11-21T08:32:07.260Z,2.61
2018-11-21T08:33:07.274Z,2.62
2018-11-21T08:34:07.287Z,2.65
2018-11-21T08:35:07.305Z,2.65
2018-11-21T08:36:07.313Z,2.62
2018-11-21T08:37:07.329Z,2.70
2018-11-21T08:38:07.332Z,2.65
2018-11-21T08:39:07.343Z,2.58
2018-11-21T08:40:07.357Z,2.61
2018-11-21T08:41:07.369Z,2.65
2018-11-21T08:42:07.386Z,2.75
2018-11-21T08:43:07.409Z,2.70
2018-11-21T08:44:07.411Z,2.72
2018-11-21T08:45:07.411Z,2.69
2018-11-21T08:46:07.425Z,2.79
2018-11-21T08:47:07.439Z,2.80
2018-11-21T08:48:07.464Z,2.87
2018-11-21T08:49:07.465Z,2.85
2018-11-21T08:50:07.478Z,2.85
2018-11-21T08:51:07.482Z,2.98
2018-11-21T08:52:07.494Z,2.88
2018-11-21T08:53:07.507Z,2.94
2018-11-21T08:54:07.523Z,2.88
2018-11-21T08:55:09.013Z,2.97
2018-11-21T08:56:07.548Z,2.98
2018-11-21T08:57:07.560Z,2.97
2018-11-21T08:58:07.575Z,2.97
2018-11-21T08:59:07.576Z,3.00
2018-11-21T09:00:07.588Z,3.03
2018-11-21T09:01:07.602Z,3.11
2018-11-21T09:02:07.616Z,3.03
2018-11-21T09:03:07.630Z,3.00
2018-11-21T09:04:07.644Z,3.11
2018-11-21T09:05:07.657Z,3.06
2018-11-21T09:06:07.672Z,3.08
2018-11-21T09:07:07.684Z,3.05
2018-11-21T09:08:07.684Z,3.16
2018-11-21T09:09:07.698Z,3.06
2018-11-21T09:10:07.716Z,3.06
2018-11-21T09:11:07.725Z,3.13
2018-11-21T09:12:08.811Z,3.06
2018-11-21T09:13:07.751Z,3.08
2018-11-21T09:14:07.770Z,3.03
2018-11-21T09:15:07.780Z,3.09
2018-11-21T09:16:07.794Z,3.06
2018-11-21T09:17:07.794Z,3.08
2018-11-21T09:18:07.807Z,3.01
2018-11-21T09:19:07.823Z,3.00
2018-11-21T09:20:07.835Z,3.09
2018-11-21T09:21:07.848Z,3.08
2018-11-21T09:22:07.875Z,3.00
2018-11-21T09:23:07.876Z,3.00
2018-11-21T09:24:07.889Z,3.03
2018-11-21T09:25:07.889Z,2.94
2018-11-21T09:26:07.903Z,3.01
2018-11-21T09:27:07.930Z,2.95
2018-11-21T09:28:07.930Z,3.00
2018-11-21T09:29:07.944Z,3.01
2018-11-21T09:30:07.957Z,2.91
2018-11-21T09:31:07.971Z,3.03
2018-11-21T09:32:07.986Z,2.93
2018-11-21T09:33:07.985Z,2.94
2018-11-21T09:34:07.999Z,2.94
2018-11-21T09:35:08.012Z,3.00
2018-11-21T09:36:08.028Z,3.01
2018-11-21T09:37:08.041Z,2.97
2018-11-21T09:38:08.053Z,2.98
2018-11-21T09:39:08.069Z,3.01
2018-11-21T09:40:08.083Z,2.94
2018-11-21T09:41:08.080Z,3.03
2018-11-21T09:42:08.095Z,3.03
2018-11-21T09:43:08.110Z,3.05
2018-11-21T09:44:08.122Z,3.05
2018-11-21T09:45:08.139Z,3.03
2018-11-21T09:46:08.149Z,2.91
2018-11-21T09:47:08.163Z,3.05
2018-11-21T09:48:08.167Z,3.05
2018-11-21T09:49:08.177Z,3.08
2018-11-21T09:50:08.205Z,2.93
2018-11-21T09:51:08.205Z,2.91
2018-11-21T09:52:08.218Z,2.91
2018-11-21T09:53:08.231Z,3.05
2018-11-21T09:54:08.244Z,2.91
2018-11-21T09:55:08.260Z,2.95
2018-11-21T09:56:08.269Z,2.95
2018-11-21T09:57:08.272Z,2.93
2018-11-21T09:58:08.287Z,2.94
2018-11-21T09:59:08.299Z,2.98
2018-11-21T10:00:08.314Z,2.95
2018-11-21T10:01:08.338Z,2.97
2018-11-21T10:02:08.344Z,3.00
2018-11-21T10:03:08.353Z,2.90
2018-11-21T10:04:08.356Z,2.97
2018-11-21T10:05:08.370Z,2.91
2018-11-21T10:06:08.384Z,3.00
2018-11-21T10:07:08.395Z,3.01
2018-11-21T10:08:08.408Z,2.93
2018-11-21T10:09:08.423Z,3.03
2018-11-21T10:10:08.437Z,2.95
2018-11-21T10:11:08.451Z,2.93
2018-11-21T10:12:08.451Z,3.01
2018-11-21T10:13:08.464Z,2.94
2018-11-21T10:14:08.478Z,2.87
2018-11-21T10:15:08.490Z,3.06
2018-11-21T10:16:08.504Z,3.00
2018-11-21T10:17:08.518Z,2.98
2018-11-21T10:18:08.534Z,3.00
2018-11-21T10:19:08.545Z,2.94
2018-11-21T10:20:08.546Z,2.90
2018-11-21T10:21:08.571Z,2.88
2018-11-21T10:22:08.573Z,2.91
2018-11-21T10:23:08.587Z,2.98
2018-11-21T10:24:08.600Z,2.95
2018-11-21T10:25:08.614Z,3.05
2018-11-21T10:26:08.627Z,2.95
2018-11-21T10:27:08.629Z,3.01
2018-11-21T10:28:08.643Z,2.97
2018-11-21T10:29:08.655Z,3.01
2018-11-21T10:30:08.672Z,2.95
2018-11-21T10:31:08.683Z,3.03
2018-11-21T10:32:08.700Z,2.97
2018-11-21T10:33:08.709Z,3.00
2018-11-21T10:34:08.724Z,2.97
2018-11-21T10:35:08.736Z,2.94
2018-11-21T10:36:08.738Z,3.06
2018-11-21T10:37:08.753Z,2.94
2018-11-21T10:38:08.765Z,3.01
2018-11-21T10:39:08.778Z,3.06
2018-11-21T10:40:08.805Z,3.01
2018-11-21T10:41:08.806Z,3.05
2018-11-21T10:42:08.818Z,3.03
2018-11-21T10:43:08.821Z,3.03
2018-11-21T10:44:08.834Z,3.01
2018-11-21T10:45:08.847Z,3.08
2018-11-21T10:46:08.862Z,3.08
2018-11-21T10:47:08.874Z,3.03
2018-11-21T10:48:08.888Z,3.12
2018-11-21T10:49:08.901Z,3.06
2018-11-21T10:50:08.914Z,3.09
2018-11-21T10:51:08.916Z,2.93
2018-11-21T10:52:08.931Z,3.00
2018-11-21T10:53:08.943Z,2.93
2018-11-21T10:54:08.956Z,2.95
2018-11-21T10:55:08.970Z,2.94
2018-11-21T10:56:08.983Z,2.91
2018-11-21T10:57:08.997Z,3.00
2018-11-21T10:58:09.011Z,3.06
2018-11-21T10:59:09.015Z,3.06
2018-11-21T11:00:09.028Z,2.95
2018-11-21T11:01:09.039Z,2.95
2018-11-21T11:02:09.054Z,2.95
2018-11-21T11:03:09.066Z,2.95
2018-11-21T11:04:09.079Z,2.94
2018-11-21T11:05:09.093Z,2.93
2018-11-21T11:06:09.094Z,2.98
2018-11-21T11:07:09.108Z,2.97
2018-11-21T11:08:09.122Z,2.93
2018-11-21T11:09:09.135Z,3.03
2018-11-21T11:10:09.148Z,2.95
2018-11-21T11:11:09.161Z,2.98
2018-11-21T11:12:09.175Z,2.94
2018-11-21T11:13:09.177Z,2.97
2018-11-21T11:14:09.191Z,2.95
2018-11-21T11:15:09.209Z,2.94
2018-11-21T11:16:09.218Z,2.90
2018-11-21T11:17:09.235Z,2.94
2018-11-21T11:18:09.243Z,2.98
2018-11-21T11:19:09.270Z,2.90
2018-11-21T11:20:09.272Z,2.98
2018-11-21T11:21:09.271Z,3.00
2018-11-21T11:22:09.286Z,2.98
2018-11-21T11:23:09.300Z,2.97
2018-11-21T11:24:09.312Z,2.93
2018-11-21T11:25:09.326Z,2.98
2018-11-21T11:26:09.338Z,3.09
2018-11-21T11:27:09.355Z,3.03
2018-11-21T11:28:10.301Z,3.03
2018-11-21T11:29:09.368Z,3.03
2018-11-21T11:30:09.381Z,3.09
2018-11-21T11:31:09.393Z,3.06
2018-11-21T11:32:09.408Z,3.05
2018-11-21T11:33:09.421Z,3.09
2018-11-21T11:34:09.440Z,3.12
2018-11-21T11:35:09.462Z,3.05
2018-11-21T11:36:09.462Z,3.09
2018-11-21T11:37:09.463Z,3.11
2018-11-21T11:38:09.476Z,3.13
2018-11-21T11:39:09.491Z,3.12
2018-11-21T11:40:09.516Z,3.08
2018-11-21T11:41:09.518Z,3.18
2018-11-21T11:42:09.530Z,3.08
2018-11-21T11:43:09.545Z,3.15
2018-11-21T11:44:09.563Z,3.05
2018-11-21T11:45:10.192Z,3.15
2018-11-21T11:46:09.573Z,3.18
2018-11-21T11:47:09.585Z,3.19
2018-11-21T11:48:09.601Z,3.21
2018-11-21T11:49:09.612Z,3.16
2018-11-21T11:50:09.630Z,3.24
2018-11-21T11:51:09.641Z,3.15
2018-11-21T11:52:09.657Z,3.15
2018-11-21T11:53:09.666Z,3.16
2018-11-21T11:54:09.669Z,3.13
2018-11-21T11:55:09.681Z,3.16
2018-11-21T11:56:09.706Z,3.08
2018-11-21T11:57:09.709Z,3.03
2018-11-21T11:58:09.721Z,3.15
2018-11-21T11:59:09.740Z,3.12
2018-11-21T12:00:09.749Z,3.08
2018-11-21T12:01:09.766Z,3.08
2018-11-21T12:02:13.155Z,3.06
2018-11-21T12:03:09.781Z,3.06
2018-11-21T12:04:09.793Z,3.09
2018-11-21T12:05:09.805Z,3.09
2018-11-21T12:06:09.821Z,3.09
2018-11-21T12:07:09.833Z,3.06
2018-11-21T12:08:09.887Z,3.16
2018-11-21T12:09:09.858Z,3.03
2018-11-21T12:10:09.874Z,3.12
2018-11-21T12:11:09.885Z,3.01
2018-11-21T12:12:09.886Z,3.15
2018-11-21T12:13:09.900Z,3.08
2018-11-21T12:14:09.922Z,3.15
2018-11-21T12:15:09.927Z,3.03
2018-11-21T12:16:09.940Z,3.11
2018-11-21T12:17:09.954Z,3.05
2018-11-21T12:18:09.969Z,3.05
2018-11-21T12:19:09.982Z,3.09
2018-11-21T12:20:09.983Z,3.01
2018-11-21T12:21:09.995Z,3.05
2018-11-21T12:22:10.010Z,3.03
2018-11-21T12:23:10.026Z,3.11
2018-11-21T12:24:10.037Z,3.06
2018-11-21T12:25:10.049Z,3.03
2018-11-21T12:26:10.569Z,3.05
2018-11-21T12:27:10.077Z,3.05
2018-11-21T12:28:10.080Z,2.94
2018-11-21T12:29:10.092Z,2.98
2018-11-21T12:30:10.105Z,2.97
2018-11-21T12:31:10.119Z,3.06
2018-11-21T12:32:10.132Z,3.08
2018-11-21T12:33:10.147Z,3.06
2018-11-21T12:34:10.173Z,2.97
2018-11-21T12:35:10.162Z,2.93
2018-11-21T12:36:10.174Z,2.97
2018-11-21T12:37:10.188Z,2.98
2018-11-21T12:38:10.201Z,3.03
2018-11-21T12:39:10.213Z,2.97
2018-11-21T12:40:10.228Z,3.05
2018-11-21T12:41:10.242Z,2.98
2018-11-21T12:42:10.254Z,3.05
2018-11-21T12:43:13.382Z,2.98
2018-11-21T12:44:10.271Z,2.94
2018-11-21T12:45:10.283Z,2.94
2018-11-21T12:46:10.298Z,2.95
2018-11-21T12:47:10.311Z,2.98
2018-11-21T12:48:10.324Z,2.91
2018-11-21T12:49:10.337Z,2.91
2018-11-21T12:50:10.349Z,2.98
2018-11-21T12:51:10.351Z,3.01
2018-11-21T12:52:10.367Z,2.98
2018-11-21T12:53:10.420Z,2.97
2018-11-21T12:54:10.396Z,2.87
2018-11-21T12:55:10.405Z,2.93
2018-11-21T12:56:10.420Z,2.83
2018-11-21T12:57:10.431Z,2.98
2018-11-21T12:58:10.434Z,2.95
2018-11-21T12:59:10.448Z,2.98
2018-11-21T13:00:10.461Z,2.93
2018-11-21T13:01:10.518Z,2.98
2018-11-21T13:02:10.488Z,2.95
2018-11-21T13:03:10.504Z,2.87
2018-11-21T13:04:10.517Z,3.03
2018-11-21T13:05:10.518Z,2.97
2018-11-21T13:06:10.530Z,2.93
2018-11-21T13:07:10.542Z,2.91
2018-11-21T13:08:10.561Z,2.97
2018-11-21T13:09:10.570Z,2.98
2018-11-21T13:10:10.584Z,2.88
2018-11-21T13:11:10.597Z,2.93
2018-11-21T13:12:10.602Z,2.95
2018-11-21T13:13:10.613Z,3.03
2018-11-21T13:14:10.626Z,2.95
2018-11-21T13:15:10.638Z,2.95
2018-11-21T13:16:10.651Z,2.97
2018-11-21T13:17:10.668Z,2.93
2018-11-21T13:18:10.680Z,3.03